createdAt,value
2022-10-29T00:01:06.680Z,14.10
2022-10-29T00:03:40.923Z,13.80
2022-10-29T00:06:11.954Z,13.50
2022-10-29T00:08:40.655Z,13.70
2022-10-29T00:11:16.830Z,14.30
2022-10-29T00:13:46.011Z,14.50
2022-10-29T00:16:19.666Z,15.00
2022-10-29T00:18:47.993Z,15.00
2022-10-29T00:21:19.146Z,13.70
2022-10-29T00:23:48.242Z,13.80
2022-10-29T00:26:17.565Z,11.70
2022-10-29T00:28:45.756Z,13.90
2022-10-29T00:31:16.698Z,13.30
2022-10-29T00:33:45.944Z,12.70
2022-10-29T00:36:16.951Z,12.40
2022-10-29T00:38:45.696Z,13.80
2022-10-29T00:41:17.132Z,15.60
2022-10-29T00:43:50.943Z,13.90
2022-10-29T00:46:31.694Z,14.70
2022-10-29T00:49:01.147Z,14.50
2022-10-29T00:51:31.737Z,15.70
2022-10-29T00:54:04.237Z,14.40
2022-10-29T00:56:47.943Z,14.40
2022-10-29T00:59:17.493Z,12.00
2022-10-29T01:01:48.104Z,15.60
2022-10-29T01:04:17.804Z,12.90
2022-10-29T01:06:47.407Z,13.10
2022-10-29T01:09:15.551Z,12.00
2022-10-29T01:11:52.274Z,12.40
2022-10-29T01:14:46.271Z,15.70
2022-10-29T01:17:39.193Z,14.00
2022-10-29T01:20:24.615Z,13.30
2022-10-29T01:23:08.674Z,12.30
2022-10-29T01:25:45.799Z,12.20
2022-10-29T01:28:28.831Z,12.50
2022-10-29T01:31:11.912Z,14.90
2022-10-29T01:34:13.441Z,11.90
2022-10-29T01:36:51.579Z,15.60
2022-10-29T01:39:42.496Z,14.50
2022-10-29T01:42:23.577Z,15.20
2022-10-29T01:45:05.616Z,15.80
2022-10-29T01:47:43.941Z,11.80
2022-10-29T01:50:16.421Z,12.90
2022-10-29T01:52:45.206Z,15.80
2022-10-29T01:55:20.552Z,12.30
2022-10-29T01:57:48.876Z,13.20
2022-10-29T02:00:19.612Z,16.10
2022-10-29T02:03:02.123Z,10.60
2022-10-29T02:05:36.409Z,15.10
2022-10-29T02:08:23.630Z,11.00
2022-10-29T02:11:14.522Z,11.80
2022-10-29T02:13:50.528Z,12.60
2022-10-29T02:16:19.804Z,12.10
2022-10-29T02:18:49.479Z,11.00
2022-10-29T02:21:18.822Z,13.70
2022-10-29T02:23:47.718Z,14.50
2022-10-29T02:26:16.201Z,13.00
2022-10-29T02:28:44.448Z,11.70
2022-10-29T02:31:12.815Z,13.30
2022-10-29T02:33:40.636Z,14.80
2022-10-29T02:36:08.876Z,12.80
2022-10-29T02:38:37.009Z,16.50
2022-10-29T02:41:05.104Z,13.50
2022-10-29T02:43:33.023Z,16.00
2022-10-29T02:46:30.739Z,15.80
2022-10-29T02:48:58.750Z,11.10
2022-10-29T02:51:26.903Z,15.60
2022-10-29T02:53:54.944Z,13.10
2022-10-29T02:56:23.054Z,13.10
2022-10-29T02:58:51.019Z,12.70
2022-10-29T03:01:18.942Z,14.00
2022-10-29T03:03:47.261Z,12.90
2022-10-29T03:06:17.087Z,13.60
2022-10-29T03:08:45.867Z,15.10
2022-10-29T03:11:14.337Z,15.20
2022-10-29T03:13:43.131Z,11.60
2022-10-29T03:16:11.039Z,12.60
2022-10-29T03:18:39.018Z,11.90
2022-10-29T03:21:06.930Z,14.90
2022-10-29T03:23:34.810Z,14.20
2022-10-29T03:26:02.880Z,12.70
2022-10-29T03:28:31.106Z,12.80
2022-10-29T03:30:59.216Z,13.10
2022-10-29T03:33:28.549Z,16.70
2022-10-29T03:36:01.573Z,12.10
2022-10-29T03:38:30.279Z,12.90
2022-10-29T03:40:58.388Z,11.70
2022-10-29T03:43:26.357Z,11.70
2022-10-29T03:45:56.257Z,12.90
2022-10-29T03:48:25.583Z,12.80
2022-10-29T03:51:08.705Z,11.60
2022-10-29T03:53:37.725Z,10.30
2022-10-29T03:56:06.727Z,11.50
2022-10-29T03:58:34.927Z,11.70
2022-10-29T04:01:06.302Z,11.40
2022-10-29T04:03:36.204Z,11.60
2022-10-29T04:06:15.244Z,12.40
2022-10-29T04:08:43.281Z,11.60
2022-10-29T04:11:12.397Z,15.10
2022-10-29T04:13:40.509Z,13.00
2022-10-29T04:16:08.982Z,12.40
2022-10-29T04:18:37.673Z,16.10
2022-10-29T04:27:07.816Z,13.20
2022-10-29T04:29:33.743Z,11.60
2022-10-29T04:32:02.013Z,13.70
2022-10-29T04:34:29.829Z,11.30
2022-10-29T04:36:58.130Z,12.30
2022-10-29T04:39:25.922Z,11.20
2022-10-29T04:41:53.753Z,12.90
2022-10-29T04:44:22.079Z,13.80
2022-10-29T04:46:49.920Z,14.80
2022-10-29T04:49:17.987Z,14.40
2022-10-29T04:51:46.186Z,10.20
2022-10-29T04:54:15.683Z,12.20
2022-10-29T04:56:43.865Z,10.10
2022-10-29T04:59:13.083Z,10.70
2022-10-29T05:01:41.204Z,10.40
2022-10-29T05:04:09.090Z,11.90
2022-10-29T05:06:37.257Z,14.30
2022-10-29T05:09:05.316Z,10.70
2022-10-29T05:11:33.201Z,14.20
2022-10-29T05:14:01.211Z,16.10
2022-10-29T05:16:29.216Z,11.60
2022-10-29T05:18:57.162Z,13.90
2022-10-29T05:21:25.200Z,13.00
2022-10-29T05:23:53.204Z,11.50
2022-10-29T05:26:21.103Z,12.60
2022-10-29T05:28:50.937Z,9.50
2022-10-29T05:31:19.187Z,14.50
2022-10-29T05:33:49.921Z,11.90
2022-10-29T05:36:20.598Z,11.30
2022-10-29T05:38:48.827Z,11.10
2022-10-29T05:41:16.633Z,12.90
2022-10-29T05:43:48.821Z,10.50
2022-10-29T05:46:16.860Z,11.20
2022-10-29T05:48:44.902Z,8.70
2022-10-29T05:51:12.884Z,11.10
2022-10-29T05:53:40.991Z,13.90
2022-10-29T05:56:09.133Z,11.40
2022-10-29T05:58:37.228Z,15.00
2022-10-29T06:01:10.449Z,13.10
2022-10-29T06:03:39.022Z,13.20
2022-10-29T06:06:07.475Z,13.40
2022-10-29T06:08:35.498Z,10.70
2022-10-29T06:11:04.451Z,11.40
2022-10-29T06:13:32.782Z,12.70
2022-10-29T06:16:01.112Z,12.10
2022-10-29T06:18:35.730Z,11.50
2022-10-29T06:21:04.471Z,10.80
2022-10-29T06:23:32.593Z,13.40
2022-10-29T06:26:01.927Z,13.60
2022-10-29T06:28:34.501Z,12.20
2022-10-29T06:31:03.417Z,10.60
2022-10-29T06:33:32.087Z,11.10
2022-10-29T06:36:01.877Z,12.10
2022-10-29T06:38:30.397Z,13.30
2022-10-29T06:40:58.814Z,13.40
2022-10-29T06:43:26.839Z,11.30
2022-10-29T06:45:55.871Z,12.80
2022-10-29T06:48:23.740Z,13.80
2022-10-29T06:50:51.851Z,11.80
2022-10-29T06:53:21.547Z,13.90
2022-10-29T06:55:49.544Z,13.30
2022-10-29T06:58:19.950Z,11.10
2022-10-29T07:00:49.367Z,12.20
2022-10-29T07:03:19.753Z,14.50
2022-10-29T07:05:48.248Z,12.80
2022-10-29T07:08:16.443Z,13.70
2022-10-29T07:10:44.448Z,15.50
2022-10-29T07:13:12.354Z,14.90
2022-10-29T07:15:40.394Z,13.60
2022-10-29T07:18:09.955Z,13.30
2022-10-29T07:20:40.437Z,13.70
2022-10-29T07:23:08.953Z,14.80
2022-10-29T07:25:38.852Z,12.40
2022-10-29T07:28:21.055Z,12.70
2022-10-29T07:30:50.531Z,17.20
2022-10-29T07:33:19.220Z,13.60
2022-10-29T07:35:47.398Z,9.40
2022-10-29T07:38:15.489Z,13.90
2022-10-29T07:40:50.585Z,13.70
2022-10-29T07:43:20.530Z,14.20
2022-10-29T07:45:50.340Z,12.50
2022-10-29T07:48:20.421Z,15.90
2022-10-29T07:50:49.454Z,12.70
2022-10-29T07:53:17.665Z,10.50
2022-10-29T07:55:52.687Z,12.80
2022-10-29T07:58:20.971Z,12.20
2022-10-29T08:00:49.569Z,14.10
2022-10-29T08:03:17.668Z,14.60
2022-10-29T08:05:56.305Z,12.40
2022-10-29T08:08:25.579Z,14.60
2022-10-29T08:10:58.748Z,12.80
2022-10-29T08:13:26.962Z,10.30
2022-10-29T08:15:55.087Z,11.20
2022-10-29T08:18:23.304Z,10.60
2022-10-29T08:20:51.710Z,13.60
2022-10-29T08:23:19.730Z,12.40
2022-10-29T08:25:52.932Z,12.70
2022-10-29T08:28:24.037Z,12.80
2022-10-29T08:30:53.705Z,13.20
2022-10-29T08:33:21.612Z,14.40
2022-10-29T08:35:49.602Z,12.10
2022-10-29T08:38:17.669Z,11.00
2022-10-29T08:41:10.013Z,13.70
2022-10-29T08:43:47.868Z,13.80
2022-10-29T08:46:21.308Z,10.80
2022-10-29T08:48:56.507Z,13.20
2022-10-29T08:51:30.525Z,13.50
2022-10-29T08:56:54.341Z,13.00
2022-10-29T08:59:25.321Z,18.40
2022-10-29T09:01:53.998Z,16.50
2022-10-29T09:04:35.105Z,15.90
2022-10-29T09:07:15.302Z,14.10
2022-10-29T09:09:57.489Z,15.80
2022-10-29T09:12:52.040Z,14.00
2022-10-29T09:15:32.235Z,20.00
2022-10-29T09:18:05.785Z,23.10
2022-10-29T09:20:33.798Z,16.90
2022-10-29T09:23:18.396Z,18.50
2022-10-29T09:25:53.902Z,14.10
2022-10-29T09:28:59.771Z,20.20
2022-10-29T09:31:42.525Z,16.50
2022-10-29T09:34:19.146Z,16.30
2022-10-29T09:36:48.735Z,12.50
2022-10-29T09:39:34.243Z,19.70
2022-10-29T09:42:11.316Z,19.40
2022-10-29T09:44:42.405Z,15.90
2022-10-29T09:47:35.342Z,16.00
2022-10-29T09:50:10.845Z,16.70
2022-10-29T09:52:44.503Z,15.60
2022-10-29T09:55:20.980Z,19.70
2022-10-29T09:57:50.060Z,22.40
2022-10-29T10:00:26.950Z,23.10
2022-10-29T10:03:00.375Z,22.00
2022-10-29T10:05:34.705Z,23.40
2022-10-29T10:08:13.923Z,22.30
2022-10-29T10:10:56.550Z,18.20
2022-10-29T10:13:27.990Z,21.40
2022-10-29T10:15:59.215Z,21.20
2022-10-29T10:18:39.739Z,17.50
2022-10-29T10:21:12.384Z,19.70
2022-10-29T10:23:49.488Z,22.00
2022-10-29T10:26:39.486Z,20.60
2022-10-29T10:29:18.479Z,24.00
2022-10-29T10:31:55.837Z,26.40
2022-10-29T10:34:43.111Z,22.90
2022-10-29T10:37:11.151Z,22.60
2022-10-29T10:39:43.710Z,18.70
2022-10-29T10:42:23.042Z,22.00
2022-10-29T10:44:54.571Z,22.20
2022-10-29T10:47:27.114Z,21.50
2022-10-29T10:50:10.997Z,20.50
2022-10-29T10:52:39.774Z,24.70
2022-10-29T10:55:23.101Z,22.90
2022-10-29T10:58:14.596Z,20.70
2022-10-29T11:00:54.843Z,24.70
2022-10-29T11:03:35.308Z,20.80
2022-10-29T11:06:26.951Z,20.60
2022-10-29T11:09:11.544Z,20.50
2022-10-29T11:11:44.734Z,20.60
2022-10-29T11:14:36.858Z,20.30
2022-10-29T11:17:14.973Z,18.50
2022-10-29T11:19:50.420Z,17.80
2022-10-29T11:22:44.776Z,23.60
2022-10-29T11:25:27.739Z,21.50
2022-10-29T11:28:18.004Z,22.30
2022-10-29T11:31:17.969Z,22.00
2022-10-29T11:33:51.642Z,19.80
2022-10-29T11:36:23.996Z,17.50
2022-10-29T11:39:09.231Z,20.80
2022-10-29T11:41:43.418Z,18.90
2022-10-29T11:44:13.649Z,22.00
2022-10-29T11:46:44.715Z,20.00
2022-10-29T11:49:41.904Z,17.20
2022-10-29T11:52:38.027Z,17.40
2022-10-29T11:55:35.929Z,19.10
2022-10-29T11:58:21.825Z,18.10
2022-10-29T12:01:02.245Z,19.20
2022-10-29T12:03:40.033Z,16.40
2022-10-29T12:06:40.464Z,18.10
2022-10-29T12:09:33.831Z,20.40
2022-10-29T12:12:27.553Z,21.20
2022-10-29T12:15:25.131Z,17.40
2022-10-29T12:18:27.885Z,21.80
2022-10-29T12:21:25.658Z,17.60
2022-10-29T12:24:26.991Z,20.60
2022-10-29T12:27:08.326Z,17.10
2022-10-29T12:29:44.240Z,17.00
2022-10-29T12:32:19.822Z,19.00
2022-10-29T12:34:57.799Z,19.30
2022-10-29T12:37:44.650Z,20.00
2022-10-29T12:40:20.322Z,18.90
2022-10-29T12:42:50.238Z,13.70
2022-10-29T12:45:34.782Z,15.10
2022-10-29T12:48:27.555Z,13.20
2022-10-29T12:51:31.473Z,15.60
2022-10-29T12:54:28.643Z,16.00
2022-10-29T12:57:04.411Z,13.10
2022-10-29T12:59:37.358Z,21.60
2022-10-29T13:02:18.744Z,13.10
2022-10-29T13:05:11.781Z,16.20
2022-10-29T13:07:46.416Z,15.20
2022-10-29T13:10:23.853Z,14.90
2022-10-29T13:13:20.490Z,11.80
2022-10-29T13:16:00.984Z,13.90
2022-10-29T13:18:59.312Z,15.70
2022-10-29T13:22:05.618Z,13.60
2022-10-29T13:24:34.208Z,13.40
2022-10-29T13:27:16.668Z,17.60
2022-10-29T13:30:11.557Z,13.20
2022-10-29T13:32:39.954Z,15.70
2022-10-29T13:35:31.028Z,13.10
2022-10-29T13:38:12.533Z,9.90
2022-10-29T13:41:07.723Z,15.10
2022-10-29T13:43:36.677Z,15.00
2022-10-29T13:46:24.109Z,14.50
2022-10-29T13:48:54.412Z,14.10
2022-10-29T13:51:33.572Z,13.20
2022-10-29T13:54:24.904Z,14.50
2022-10-29T13:57:00.894Z,13.90
2022-10-29T13:59:38.517Z,12.10
2022-10-29T14:02:50.536Z,12.90
2022-10-29T14:05:26.384Z,18.40
2022-10-29T14:08:00.779Z,12.10
2022-10-29T14:10:34.662Z,11.40
2022-10-29T14:13:08.497Z,14.80
2022-10-29T14:15:42.038Z,14.70
2022-10-29T14:18:25.217Z,14.40
2022-10-29T14:20:58.075Z,15.70
2022-10-29T14:23:27.458Z,11.80
2022-10-29T14:25:58.440Z,10.70
2022-10-29T14:28:28.357Z,16.70
2022-10-29T14:31:13.316Z,16.70
2022-10-29T14:33:44.409Z,18.40
2022-10-29T14:36:31.265Z,14.80
2022-10-29T14:39:08.315Z,13.60
2022-10-29T14:41:38.144Z,16.10
2022-10-29T14:44:16.283Z,16.10
2022-10-29T14:46:53.233Z,15.60
2022-10-29T14:49:26.074Z,17.40
2022-10-29T14:51:58.667Z,16.20
2022-10-29T14:54:29.347Z,14.30
2022-10-29T14:57:02.843Z,13.80
2022-10-29T14:59:33.933Z,16.50
2022-10-29T15:02:36.372Z,19.60
2022-10-29T15:05:04.608Z,16.40
2022-10-29T15:07:36.386Z,14.80
2022-10-29T15:10:18.901Z,12.30
2022-10-29T15:12:47.996Z,13.80
2022-10-29T15:15:18.718Z,12.30
2022-10-29T15:17:52.962Z,12.40
2022-10-29T15:20:48.126Z,16.40
2022-10-29T15:23:25.209Z,14.30
2022-10-29T15:26:09.292Z,14.60
2022-10-29T15:28:40.950Z,15.10
2022-10-29T15:31:33.984Z,14.30
2022-10-29T15:34:10.361Z,15.00
2022-10-29T15:36:52.705Z,16.30
2022-10-29T15:39:30.300Z,14.90
2022-10-29T15:42:00.220Z,22.50
2022-10-29T15:44:40.724Z,18.90
2022-10-29T15:47:21.371Z,16.30
2022-10-29T15:49:49.639Z,18.20
2022-10-29T15:52:19.224Z,20.70
2022-10-29T15:54:47.884Z,17.20
2022-10-29T15:57:17.108Z,17.90
2022-10-29T15:59:45.137Z,19.10
2022-10-29T16:02:15.481Z,18.70
2022-10-29T16:04:43.741Z,21.50
2022-10-29T16:07:16.761Z,18.50
2022-10-29T16:09:51.616Z,17.00
2022-10-29T16:12:20.068Z,17.50
2022-10-29T16:14:47.902Z,20.40
2022-10-29T16:17:18.744Z,21.60
2022-10-29T16:19:47.231Z,21.70
2022-10-29T16:22:21.720Z,19.70
2022-10-29T16:24:49.636Z,24.60
2022-10-29T16:27:18.622Z,24.10
2022-10-29T16:29:47.340Z,24.10
2022-10-29T16:32:22.699Z,20.90
2022-10-29T16:34:52.272Z,18.40
2022-10-29T16:37:21.494Z,18.50
2022-10-29T16:39:49.585Z,23.30
2022-10-29T16:42:24.674Z,20.50
2022-10-29T16:44:52.741Z,19.80
2022-10-29T16:47:20.600Z,29.20
2022-10-29T16:49:48.556Z,23.80
2022-10-29T16:52:20.953Z,24.90
2022-10-29T16:54:51.794Z,18.40
2022-10-29T16:57:20.005Z,24.50
2022-10-29T16:59:48.114Z,18.50
2022-10-29T17:02:16.382Z,22.60
2022-10-29T17:04:44.477Z,26.50
2022-10-29T17:07:12.426Z,24.60
2022-10-29T17:09:40.466Z,24.40
2022-10-29T17:12:08.878Z,22.40
2022-10-29T17:14:37.057Z,29.90
2022-10-29T17:17:04.986Z,28.10
2022-10-29T17:19:33.694Z,25.20
2022-10-29T17:22:04.230Z,27.10
2022-10-29T17:24:32.143Z,27.80
2022-10-29T17:27:00.149Z,25.00
2022-10-29T17:29:31.354Z,24.10
2022-10-29T17:34:39.289Z,26.30
2022-10-29T17:37:07.973Z,22.40
2022-10-29T17:39:35.847Z,23.70
2022-10-29T17:42:05.612Z,28.00
2022-10-29T17:44:35.501Z,25.20
2022-10-29T17:47:03.640Z,29.90
2022-10-29T17:49:31.546Z,23.10
2022-10-29T17:51:59.719Z,23.60
2022-10-29T17:54:28.205Z,27.90
2022-10-29T17:56:56.304Z,24.80
2022-10-29T17:59:24.581Z,25.60
2022-10-29T18:01:52.543Z,33.20
2022-10-29T18:04:20.678Z,65.60
2022-10-29T18:06:49.339Z,50.60
2022-10-29T18:09:20.284Z,37.20
2022-10-29T18:11:50.578Z,36.30
2022-10-29T18:14:18.605Z,29.20
2022-10-29T18:16:46.611Z,29.00
2022-10-29T18:19:14.746Z,28.80
2022-10-29T18:21:42.861Z,29.10
2022-10-29T18:24:11.467Z,26.90
2022-10-29T18:26:40.136Z,32.10
2022-10-29T18:29:12.002Z,35.60
2022-10-29T18:31:45.148Z,27.60
2022-10-29T18:34:15.318Z,27.40
2022-10-29T18:36:43.561Z,29.20
2022-10-29T18:39:11.559Z,30.50
2022-10-29T18:41:40.687Z,29.00
2022-10-29T18:44:09.043Z,27.20
2022-10-29T18:46:37.039Z,32.50
2022-10-29T18:49:05.111Z,32.80
2022-10-29T18:51:33.149Z,32.60
2022-10-29T18:54:01.132Z,28.10
2022-10-29T18:56:30.740Z,29.10
2022-10-29T18:58:59.637Z,30.70
2022-10-29T19:01:32.105Z,27.90
2022-10-29T19:04:03.467Z,26.90
2022-10-29T19:06:33.404Z,27.00
2022-10-29T19:09:04.640Z,26.50
2022-10-29T19:11:33.031Z,27.00
2022-10-29T19:14:04.422Z,29.30
2022-10-29T19:16:33.609Z,27.20
2022-10-29T19:19:08.090Z,29.60
2022-10-29T19:21:38.211Z,33.50
2022-10-29T19:24:07.620Z,30.80
2022-10-29T19:26:36.350Z,29.60
2022-10-29T19:29:05.901Z,28.70
2022-10-29T19:31:35.639Z,31.00
2022-10-29T19:34:06.298Z,28.10
2022-10-29T19:36:36.166Z,31.70
2022-10-29T19:39:05.170Z,26.00
2022-10-29T19:41:33.651Z,33.20
2022-10-29T19:44:02.459Z,32.50
2022-10-29T19:46:31.181Z,31.90
2022-10-29T19:49:00.935Z,28.10
2022-10-29T19:51:29.323Z,29.00
2022-10-29T19:53:58.835Z,28.40
2022-10-29T19:56:26.847Z,28.70
2022-10-29T19:58:54.968Z,31.30
2022-10-29T20:01:22.896Z,26.80
2022-10-29T20:03:51.052Z,26.90
2022-10-29T20:06:19.200Z,28.70
2022-10-29T20:08:47.066Z,28.60
2022-10-29T20:11:15.073Z,30.50
2022-10-29T20:13:43.242Z,27.00
2022-10-29T20:16:16.287Z,28.60
2022-10-29T20:18:44.365Z,35.20
2022-10-29T20:21:13.920Z,29.80
2022-10-29T20:23:42.876Z,35.70
2022-10-29T20:26:11.444Z,36.90
2022-10-29T20:28:39.672Z,39.00
2022-10-29T20:31:26.125Z,53.80
2022-10-29T20:33:58.770Z,40.50
2022-10-29T20:36:32.547Z,36.40
2022-10-29T20:39:01.900Z,32.70
2022-10-29T20:41:30.570Z,31.00
2022-10-29T20:44:01.788Z,35.90
2022-10-29T20:46:30.012Z,34.40
2022-10-29T20:48:58.059Z,32.90
2022-10-29T20:51:26.011Z,26.60
2022-10-29T20:53:54.945Z,28.30
2022-10-29T20:56:25.814Z,29.00
2022-10-29T20:58:54.640Z,27.70
2022-10-29T21:01:24.771Z,27.20
2022-10-29T21:03:52.761Z,30.10
2022-10-29T21:06:21.180Z,28.30
2022-10-29T21:08:51.125Z,27.70
2022-10-29T21:11:20.783Z,27.20
2022-10-29T21:13:49.685Z,26.90
2022-10-29T21:16:27.578Z,26.20
2022-10-29T21:18:58.589Z,24.50
2022-10-29T21:21:30.125Z,30.30
2022-10-29T21:23:58.500Z,30.20
2022-10-29T21:26:28.100Z,26.30
2022-10-29T21:28:56.571Z,31.00
2022-10-29T21:31:24.987Z,28.40
2022-10-29T21:33:54.343Z,28.30
2022-10-29T21:36:23.315Z,29.20
2022-10-29T21:38:51.251Z,28.90
2022-10-29T21:41:19.444Z,25.30
2022-10-29T21:43:47.414Z,32.30
2022-10-29T21:46:15.286Z,24.30
2022-10-29T21:48:43.492Z,25.20
2022-10-29T21:51:13.347Z,23.50
2022-10-29T21:53:41.681Z,26.90
2022-10-29T21:56:12.792Z,29.80
2022-10-29T21:58:41.312Z,28.80
2022-10-29T22:01:15.367Z,21.80
2022-10-29T22:03:45.819Z,23.30
2022-10-29T22:06:18.849Z,25.40
2022-10-29T22:08:48.047Z,27.50
2022-10-29T22:11:16.236Z,25.70
2022-10-29T22:13:44.365Z,25.80
2022-10-29T22:16:12.964Z,26.90
2022-10-29T22:18:41.126Z,29.10
2022-10-29T22:21:11.995Z,28.70
2022-10-29T22:23:47.519Z,27.10
2022-10-29T22:26:17.324Z,26.60
2022-10-29T22:28:47.349Z,25.60
2022-10-29T22:31:17.059Z,27.30
2022-10-29T22:33:45.955Z,26.30
2022-10-29T22:36:15.349Z,29.50
2022-10-29T22:38:43.838Z,25.30
2022-10-29T22:41:14.712Z,26.00
2022-10-29T22:43:43.630Z,24.20
2022-10-29T22:46:16.758Z,29.80
2022-10-29T22:48:45.542Z,29.60
2022-10-29T22:51:22.669Z,27.80
2022-10-29T22:53:52.331Z,26.60
2022-10-29T22:56:23.271Z,25.00
2022-10-29T22:58:51.361Z,25.60
2022-10-29T23:01:22.490Z,24.50
2022-10-29T23:03:51.240Z,29.60
2022-10-29T23:06:21.271Z,29.20
2022-10-29T23:08:52.778Z,25.70
2022-10-29T23:11:26.607Z,23.70
2022-10-29T23:13:59.437Z,23.50
2022-10-29T23:16:33.271Z,27.10
2022-10-29T23:19:03.962Z,27.10
2022-10-29T23:21:33.040Z,24.20
2022-10-29T23:24:01.078Z,23.40
2022-10-29T23:26:29.865Z,25.60
2022-10-29T23:28:57.983Z,22.50
2022-10-29T23:31:28.027Z,24.10
2022-10-29T23:33:57.452Z,23.40
2022-10-29T23:36:27.156Z,24.70
2022-10-29T23:38:56.732Z,24.90
2022-10-29T23:41:26.087Z,23.50
2022-10-29T23:43:54.196Z,24.30
2022-10-29T23:46:22.236Z,28.80
2022-10-29T23:48:51.025Z,25.50
2022-10-29T23:51:19.576Z,29.20
2022-10-29T23:53:50.338Z,24.00
2022-10-29T23:56:21.422Z,27.10
2022-10-29T23:58:49.263Z,30.00
